Time;durP1;ratioP1;P1;durP2;ratioP2;P2;SDS_P1;SDS_P2;PMS_P1;PMS_P2;Temp;Humidity;BMP_temperature;BMP_pressure;BME280_temperature;BME280_humidity;BME280_pressure;Samples;Min_cycle;Max_cycle;Signal;HPM_P1;HPM_P2
2022/07/03 00:01:41;;;;;;;;;;;;;;;14.62;85.77;99892.53;1717929;82;20118;-70
2022/07/03 00:04:08;;;;;;;;;;;;;;;14.61;86.15;99885.39;1738783;82;21193;-70
2022/07/03 00:06:34;;;;;;;;;;;;;;;14.61;86.31;99884.81;1738679;82;20455;-70
2022/07/03 00:09:03;;;;;;;;;;;;;;;14.63;85.60;99892.77;1739020;82;20109;-70
2022/07/03 00:11:29;;;;;;;;;;;;;;;14.69;85.10;99884.53;1738812;82;20117;-70
2022/07/03 00:13:56;;;;;;;;;;;;;;;14.70;84.70;99876.48;1738780;82;20094;-70
2022/07/03 00:16:22;;;;;;;;;;;;;;;14.71;84.75;99873.95;1739012;82;21758;-70
2022/07/03 00:18:49;;;;;;;;;;;;;;;14.72;84.49;99876.95;1738940;82;20094;-70
2022/07/03 00:21:35;;;;;;;;;;;;;;;14.77;84.00;99872.61;1738721;82;20090;-70
2022/07/03 00:24:10;;;;;;;;;;;;;;;14.80;84.09;99871.37;1738705;82;20690;-70
2022/07/03 00:26:39;;;;;;;;;;;;;;;14.79;83.93;99870.32;1738726;82;20081;-70
2022/07/03 00:29:08;;;;;;;;;;;;;;;14.79;83.52;99866.98;1719660;82;21768;-70
2022/07/03 00:31:35;;;;;;;;;;;;;;;14.82;83.76;99866.89;1738664;82;20117;-70
2022/07/03 00:34:01;;;;;;;;;;;;;;;14.79;83.98;99865.60;1739087;82;20424;-70
2022/07/03 00:36:35;;;;;;;;;;;;;;;14.75;84.14;99861.89;1738685;82;20601;-70
2022/07/03 00:39:02;;;;;;;;;;;;;;;14.70;84.56;99861.28;1719005;82;20112;-70
2022/07/03 00:41:31;;;;;;;;;;;;;;;14.65;84.73;99858.14;1738761;82;21567;-70
2022/07/03 00:43:57;;;;;;;;;;;;;;;14.61;84.88;99857.77;1738767;82;20113;-72
2022/07/03 00:46:27;;;;;;;;;;;;;;;14.57;85.12;99853.48;1738802;82;20105;-72
2022/07/03 00:48:55;;;;;;;;;;;;;;;14.52;85.39;99850.34;1739049;82;20764;-70
2022/07/03 00:51:26;;;;;;;;;;;;;;;14.48;85.82;99850.77;1739030;82;20444;-70
2022/07/03 00:53:55;;;;;;;;;;;;;;;14.46;86.07;99857.77;1738798;82;21071;-72
2022/07/03 00:56:27;;;;;;;;;;;;;;;14.40;86.19;99848.86;1738929;82;20117;-72
2022/07/03 00:58:56;;;;;;;;;;;;;;;14.36;86.34;99845.15;1738511;82;20101;-70
2022/07/03 01:01:29;;;;;;;;;;;;;;;14.32;86.51;99844.20;1738287;82;20638;-70
2022/07/03 01:04:02;;;;;;;;;;;;;;;14.28;86.63;99851.52;1738554;82;20081;-70
2022/07/03 01:06:29;;;;;;;;;;;;;;;14.25;86.94;99854.95;1734671;82;21795;-70
2022/07/03 01:08:58;;;;;;;;;;;;;;;14.20;86.98;99851.00;1719154;82;20141;-70
2022/07/03 01:11:45;;;;;;;;;;;;;;;14.15;87.07;99849.80;1718278;82;20085;-70
2022/07/03 01:14:25;;;;;;;;;;;;;;;14.12;87.50;99852.66;1738712;82;20146;-70
2022/07/03 01:17:03;;;;;;;;;;;;;;;14.09;87.77;99855.27;1737726;82;20069;-70
2022/07/03 01:19:43;;;;;;;;;;;;;;;14.07;87.84;99854.79;1738714;82;21540;-70
2022/07/03 01:22:32;;;;;;;;;;;;;;;14.05;88.08;99850.98;1738683;82;20467;-70
2022/07/03 01:25:18;;;;;;;;;;;;;;;14.03;88.33;99850.50;1738729;82;20070;-70
2022/07/03 01:27:59;;;;;;;;;;;;;;;14.02;88.62;99848.87;1738749;82;20094;-70
2022/07/03 01:30:28;;;;;;;;;;;;;;;14.01;88.79;99854.16;1738833;82;20082;-70
2022/07/03 01:32:58;;;;;;;;;;;;;;;13.98;88.89;99849.30;1738986;82;21733;-70
2022/07/03 01:35:33;;;;;;;;;;;;;;;13.98;89.05;99855.39;1738684;82;20093;-70
2022/07/03 01:38:05;;;;;;;;;;;;;;;13.95;89.32;99860.19;1739533;82;20073;-70
2022/07/03 01:40:33;;;;;;;;;;;;;;;13.92;89.67;99856.14;1739363;82;20442;-70
2022/07/03 01:43:02;;;;;;;;;;;;;;;13.93;89.80;99856.95;1716517;82;37102;-70
2022/07/03 01:45:29;;;;;;;;;;;;;;;13.91;89.99;99846.81;1739349;82;21122;-71
2022/07/03 01:47:55;;;;;;;;;;;;;;;13.89;89.94;99852.66;1739361;82;20093;-70
2022/07/03 01:50:21;;;;;;;;;;;;;;;13.86;89.89;99851.38;1739681;82;20082;-70
2022/07/03 01:52:47;;;;;;;;;;;;;;;13.83;89.99;99853.45;1739306;82;20146;-70
2022/07/03 01:55:17;;;;;;;;;;;;;;;13.77;90.10;99856.14;1716687;82;20117;-70
2022/07/03 01:57:45;;;;;;;;;;;;;;;13.75;90.13;99854.84;1739698;82;21101;-70
2022/07/03 02:00:13;;;;;;;;;;;;;;;13.71;90.24;99853.31;1739313;82;20133;-70
2022/07/03 02:02:46;;;;;;;;;;;;;;;13.67;90.47;99857.88;1739372;82;20093;-70
2022/07/03 02:05:18;;;;;;;;;;;;;;;13.64;90.50;99859.09;1739378;82;20121;-71
2022/07/03 02:07:47;;;;;;;;;;;;;;;13.60;90.86;99853.42;1733426;82;20165;-71
2022/07/03 02:10:16;;;;;;;;;;;;;;;13.57;91.03;99856.03;1722536;82;21053;-70
2022/07/03 02:12:52;;;;;;;;;;;;;;;13.53;91.43;99852.55;1709615;83;20124;-71
2022/07/03 02:15:31;;;;;;;;;;;;;;;13.50;91.67;99848.25;1709774;83;20096;-70
2022/07/03 02:17:58;;;;;;;;;;;;;;;13.49;92.10;99853.53;1709739;83;20083;-71
2022/07/03 02:20:24;;;;;;;;;;;;;;;13.50;92.33;99848.25;1720137;82;20092;-71
2022/07/03 02:22:57;;;;;;;;;;;;;;;13.50;92.67;99852.39;1737420;82;21791;-71
2022/07/03 02:25:28;;;;;;;;;;;;;;;13.50;92.98;99848.25;1737362;82;20099;-72
2022/07/03 02:28:04;;;;;;;;;;;;;;;13.51;93.36;99847.92;1737192;82;20084;-71
2022/07/03 02:30:31;;;;;;;;;;;;;;;13.53;93.78;99848.98;1729660;82;20980;-72
2022/07/03 02:32:59;;;;;;;;;;;;;;;13.54;94.04;99839.00;1714539;82;20192;-72
2022/07/03 02:35:29;;;;;;;;;;;;;;;13.56;94.39;99842.80;1710742;81;21110;-72
2022/07/03 02:38:08;;;;;;;;;;;;;;;13.60;94.62;99837.44;1710858;82;20491;-72
2022/07/03 02:40:58;;;;;;;;;;;;;;;13.64;94.79;99843.35;1738517;82;20113;-72
2022/07/03 02:43:40;;;;;;;;;;;;;;;13.68;94.77;99842.94;1724258;82;20491;-72
2022/07/03 02:49:32;;;;;;;;;;;;;;;13.80;95.23;99840.87;1708997;84;21134;-72
2022/07/03 02:52:23;;;;;;;;;;;;;;;13.87;95.30;99837.00;1709299;82;20175;-72
2022/07/03 02:54:49;;;;;;;;;;;;;;;13.94;95.35;99841.44;1707822;83;20115;-72
2022/07/03 02:57:23;;;;;;;;;;;;;;;14.01;95.27;99847.83;1709245;84;20605;-72
2022/07/03 02:59:57;;;;;;;;;;;;;;;14.07;95.46;99847.89;1708527;84;20159;-74
2022/07/03 03:02:56;;;;;;;;;;;;;;;14.13;95.58;99847.38;1708989;84;21787;-72
2022/07/03 03:05:27;;;;;;;;;;;;;;;14.22;95.52;99841.81;1708736;82;20127;-72
2022/07/03 03:08:19;;;;;;;;;;;;;;;14.33;95.46;99843.63;1709082;84;20110;-72
2022/07/03 03:10:46;;;;;;;;;;;;;;;14.42;95.39;99843.84;1708662;83;20119;-72
2022/07/03 03:13:16;;;;;;;;;;;;;;;14.56;95.47;99848.28;1709056;84;20147;-70
2022/07/03 03:15:49;;;;;;;;;;;;;;;14.66;95.27;99844.56;1709284;83;21129;-70
2022/07/03 03:18:17;;;;;;;;;;;;;;;14.79;94.73;99842.11;1691176;84;20120;-70
2022/07/03 03:20:43;;;;;;;;;;;;;;;14.94;92.83;99842.66;1709459;84;20085;-71
2022/07/03 03:23:17;;;;;;;;;;;;;;;15.08;92.51;99836.25;1708840;84;20368;-72
2022/07/03 03:25:44;;;;;;;;;;;;;;;15.19;90.72;99836.88;1709710;84;20183;-71
2022/07/03 03:28:10;;;;;;;;;;;;;;;15.32;87.07;99841.89;1709277;84;21545;-71
2022/07/03 03:30:37;;;;;;;;;;;;;;;15.49;85.32;99846.44;1709567;84;20454;-71
2022/07/03 03:33:08;;;;;;;;;;;;;;;15.61;84.79;99839.56;1709357;84;20131;-71
2022/07/03 03:35:35;;;;;;;;;;;;;;;15.74;84.65;99841.78;1709332;84;20084;-71
2022/07/03 03:38:02;;;;;;;;;;;;;;;15.82;83.34;99840.30;1709334;84;20108;-71
2022/07/03 03:40:29;;;;;;;;;;;;;;;15.93;83.49;99839.28;1709391;84;20466;-71
2022/07/03 03:42:55;;;;;;;;;;;;;;;16.05;84.47;99839.88;1709315;84;20087;-71
2022/07/03 03:45:22;;;;;;;;;;;;;;;16.17;84.69;99842.66;1709403;84;20091;-71
2022/07/03 03:47:48;;;;;;;;;;;;;;;16.28;83.77;99849.32;1709326;84;20111;-71
2022/07/03 03:50:15;;;;;;;;;;;;;;;16.38;82.72;99841.13;1709373;84;20120;-71
2022/07/03 03:52:41;;;;;;;;;;;;;;;16.50;79.53;99843.31;1709643;84;21098;-71
2022/07/03 03:55:11;;;;;;;;;;;;;;;16.66;79.46;99849.56;1709310;84;20415;-71
2022/07/03 03:57:38;;;;;;;;;;;;;;;16.80;78.26;99854.13;1709345;84;20119;-71
2022/07/03 04:00:05;;;;;;;;;;;;;;;16.92;78.67;99850.52;1709288;84;20096;-72
2022/07/03 04:02:33;;;;;;;;;;;;;;;17.04;76.09;99843.56;1708810;84;20099;-73
2022/07/03 04:05:00;;;;;;;;;;;;;;;17.13;74.22;99838.09;1709394;84;21196;-72
2022/07/03 04:07:26;;;;;;;;;;;;;;;17.21;73.36;99838.30;1709521;84;20139;-72
2022/07/03 04:09:53;;;;;;;;;;;;;;;17.26;72.44;99844.41;1709353;84;20123;-71
2022/07/03 04:12:20;;;;;;;;;;;;;;;17.33;72.83;99839.03;1709325;84;20638;-71
2022/07/03 04:14:46;;;;;;;;;;;;;;;17.44;73.53;99842.91;1709347;84;20096;-71
2022/07/03 04:17:13;;;;;;;;;;;;;;;17.54;72.83;99840.78;1709623;83;21086;-71
2022/07/03 04:19:39;;;;;;;;;;;;;;;17.65;71.60;99837.72;1709275;84;20510;-71
2022/07/03 04:22:10;;;;;;;;;;;;;;;17.76;71.39;99832.70;1709600;84;20083;-71
2022/07/03 04:24:36;;;;;;;;;;;;;;;17.91;70.98;99827.52;1708403;84;20446;-71
2022/07/03 04:27:02;;;;;;;;;;;;;;;18.05;69.69;99833.41;1709323;84;20147;-72
2022/07/03 04:29:29;;;;;;;;;;;;;;;18.20;69.73;99831.21;1709406;84;21138;-71
2022/07/03 04:31:55;;;;;;;;;;;;;;;18.36;69.58;99834.78;1720211;82;20093;-71
2022/07/03 04:34:22;;;;;;;;;;;;;;;18.57;69.59;99832.25;1730239;82;20088;-71
2022/07/03 04:36:49;;;;;;;;;;;;;;;18.76;67.63;99829.55;1729502;81;20467;-71
2022/07/03 04:39:15;;;;;;;;;;;;;;;18.94;67.18;99829.94;1752122;81;20085;-72
2022/07/03 04:41:42;;;;;;;;;;;;;;;19.17;66.90;99825.82;1761412;81;21514;-71
2022/07/03 04:44:08;;;;;;;;;;;;;;;19.37;66.82;99819.88;1761512;81;20090;-71
2022/07/03 04:46:35;;;;;;;;;;;;;;;19.56;65.48;99826.05;1761392;81;20116;-71
2022/07/03 04:49:03;;;;;;;;;;;;;;;19.75;64.94;99824.58;1761331;81;20115;-71
2022/07/03 04:51:29;;;;;;;;;;;;;;;19.96;63.91;99823.35;1761344;81;20080;-70
2022/07/03 04:53:56;;;;;;;;;;;;;;;20.13;61.14;99823.44;1761351;81;22103;-72
2022/07/03 04:56:22;;;;;;;;;;;;;;;20.22;61.01;99816.40;1761479;81;20147;-72
2022/07/03 04:58:49;;;;;;;;;;;;;;;20.34;59.29;99830.13;1761377;81;20069;-72
2022/07/03 05:01:15;;;;;;;;;;;;;;;20.46;59.49;99825.56;1743788;81;20090;-71
2022/07/03 05:03:41;;;;;;;;;;;;;;;20.61;59.74;99824.00;1731146;83;20082;-72
2022/07/03 05:06:07;;;;;;;;;;;;;;;20.78;59.60;99819.86;1737531;81;21101;-72
2022/07/03 05:08:35;;;;;;;;;;;;;;;20.94;59.01;99819.66;1745506;81;20159;-72
2022/07/03 05:11:01;;;;;;;;;;;;;;;21.09;59.42;99816.66;1744952;81;20134;-72
2022/07/03 05:13:28;;;;;;;;;;;;;;;21.26;58.15;99813.11;1745737;81;20435;-72
2022/07/03 05:15:54;;;;;;;;;;;;;;;21.37;56.39;99809.23;1747606;81;20123;-72
2022/07/03 05:18:20;;;;;;;;;;;;;;;21.46;55.85;99810.32;1744978;81;22117;-73
2022/07/03 05:20:47;;;;;;;;;;;;;;;21.55;56.46;99808.62;1754096;81;20191;-73
2022/07/03 05:23:14;;;;;;;;;;;;;;;21.70;54.73;99811.77;1745548;81;20114;-73
2022/07/03 05:25:40;;;;;;;;;;;;;;;21.82;53.53;99807.30;1730760;83;20390;-73
2022/07/03 05:28:07;;;;;;;;;;;;;;;21.92;52.91;99808.00;1729700;81;20118;-76
2022/07/03 05:30:33;;;;;;;;;;;;;;;22.05;52.08;99807.11;1730142;83;21161;-70
2022/07/03 05:33:00;;;;;;;;;;;;;;;22.16;51.62;99805.20;1730537;83;20474;-70
2022/07/03 05:35:27;;;;;;;;;;;;;;;22.27;51.24;99802.49;1731117;83;20167;-71
2022/07/03 05:37:53;;;;;;;;;;;;;;;22.38;50.26;99806.98;1730619;83;20424;-70
2022/07/03 05:40:20;;;;;;;;;;;;;;;22.49;50.54;99804.25;1730595;83;20421;-71
2022/07/03 05:42:47;;;;;;;;;;;;;;;22.62;50.76;99799.91;1728619;83;21479;-71
2022/07/03 05:45:13;;;;;;;;;;;;;;;22.76;48.46;99799.80;1734622;81;20501;-73
2022/07/03 05:47:40;;;;;;;;;;;;;;;22.85;48.39;99802.47;1743620;81;20137;-76
2022/07/03 05:50:08;;;;;;;;;;;;;;;22.95;47.48;99802.33;1730666;83;20441;-71
2022/07/03 05:52:34;;;;;;;;;;;;;;;23.01;47.73;99800.16;1731082;83;20110;-71
2022/07/03 05:55:02;;;;;;;;;;;;;;;23.04;47.53;99802.17;1730608;83;21029;-72
2022/07/03 05:57:29;;;;;;;;;;;;;;;23.10;47.86;99795.59;1730692;83;20094;-71
2022/07/03 05:59:56;;;;;;;;;;;;;;;23.21;47.12;99801.20;1730739;83;20115;-73
2022/07/03 06:02:22;;;;;;;;;;;;;;;23.31;46.17;99794.84;1730726;83;20419;-72
2022/07/03 06:04:48;;;;;;;;;;;;;;;23.36;43.55;99795.85;1731132;83;20440;-72
2022/07/03 06:07:16;;;;;;;;;;;;;;;23.36;44.01;99799.45;1730921;83;22435;-71
2022/07/03 06:09:44;;;;;;;;;;;;;;;23.38;43.69;99792.86;1730847;83;20154;-72
2022/07/03 06:12:11;;;;;;;;;;;;;;;23.44;44.25;99789.08;1730240;83;20119;-73
2022/07/03 06:14:38;;;;;;;;;;;;;;;23.57;44.36;99785.34;1735385;81;20621;-74
2022/07/03 06:17:04;;;;;;;;;;;;;;;23.68;44.96;99783.35;1760580;81;20173;-73
2022/07/03 06:19:31;;;;;;;;;;;;;;;23.84;44.22;99781.54;1760903;81;21097;-73
2022/07/03 06:21:57;;;;;;;;;;;;;;;24.03;43.28;99786.76;1760673;81;20129;-72
2022/07/03 06:24:24;;;;;;;;;;;;;;;24.28;42.99;99783.95;1760578;81;20156;-73
2022/07/03 06:26:50;;;;;;;;;;;;;;;24.45;43.51;99783.12;1760081;81;20510;-74
2022/07/03 06:29:16;;;;;;;;;;;;;;;24.55;43.21;99782.91;1760310;81;20420;-79
2022/07/03 06:31:43;;;;;;;;;;;;;;;24.62;43.08;99773.06;1760909;81;21121;-74
2022/07/03 06:34:10;;;;;;;;;;;;;;;24.66;42.96;99780.87;1761321;81;20116;-74
2022/07/03 06:36:36;;;;;;;;;;;;;;;24.63;43.40;99779.68;1761037;81;20414;-75
2022/07/03 06:39:03;;;;;;;;;;;;;;;24.65;42.37;99777.27;1753578;81;20164;-71
2022/07/03 06:41:30;;;;;;;;;;;;;;;24.64;40.86;99772.06;1751321;81;20127;-80
2022/07/03 06:43:57;;;;;;;;;;;;;;;24.63;40.55;99781.69;1761059;81;21788;-74
2022/07/03 06:46:23;;;;;;;;;;;;;;;24.63;41.51;99782.48;1751554;81;20122;-72
2022/07/03 06:48:50;;;;;;;;;;;;;;;24.63;40.89;99784.48;1709994;83;20438;-73
2022/07/03 06:51:16;;;;;;;;;;;;;;;24.65;40.63;99780.08;1730760;83;20119;-76
2022/07/03 06:53:43;;;;;;;;;;;;;;;24.65;42.04;99784.89;1730178;83;20346;-76
2022/07/03 06:56:09;;;;;;;;;;;;;;;24.65;41.89;99782.08;1731199;83;21481;-73
2022/07/03 06:58:35;;;;;;;;;;;;;;;24.68;41.35;99786.88;1731170;83;20123;-72
2022/07/03 07:01:02;;;;;;;;;;;;;;;24.73;42.15;99787.08;1730615;83;20468;-71
2022/07/03 07:03:28;;;;;;;;;;;;;;;24.78;42.57;99781.84;1730915;83;20477;-72
2022/07/03 07:05:55;;;;;;;;;;;;;;;24.81;42.26;99782.44;1730081;83;20146;-72
2022/07/03 07:08:21;;;;;;;;;;;;;;;24.82;42.87;99789.66;1730991;83;21112;-71
2022/07/03 07:10:47;;;;;;;;;;;;;;;24.79;43.22;99783.45;1739213;81;20480;-71
2022/07/03 07:13:14;;;;;;;;;;;;;;;24.79;44.12;99786.86;1759329;81;20116;-71
2022/07/03 07:15:40;;;;;;;;;;;;;;;24.73;44.23;99779.45;1761246;81;20766;-72
2022/07/03 07:18:06;;;;;;;;;;;;;;;24.66;44.83;99782.28;1761574;81;20120;-71
2022/07/03 07:20:33;;;;;;;;;;;;;;;24.63;44.46;99781.08;1761453;81;21084;-71
2022/07/03 07:22:59;;;;;;;;;;;;;;;24.59;45.95;99778.88;1761269;81;20116;-71
2022/07/03 07:25:25;;;;;;;;;;;;;;;24.59;49.22;99779.48;1761625;81;20101;-71
2022/07/03 07:27:52;;;;;;;;;;;;;;;24.60;50.38;99774.88;1761586;81;20168;-71
2022/07/03 07:30:18;;;;;;;;;;;;;;;24.57;46.54;99772.08;1761345;81;20113;-72
2022/07/03 07:32:44;;;;;;;;;;;;;;;24.52;46.58;99778.09;1761577;81;21094;-71
2022/07/03 07:35:12;;;;;;;;;;;;;;;24.47;45.94;99773.70;1761316;81;20137;-71
2022/07/03 07:37:38;;;;;;;;;;;;;;;24.46;47.58;99783.32;1758153;81;20068;-71
2022/07/03 07:40:07;;;;;;;;;;;;;;;24.45;49.04;99777.51;1738789;82;20741;-71
2022/07/03 07:42:33;;;;;;;;;;;;;;;24.47;48.75;99782.72;1738749;82;20476;-71
2022/07/03 07:44:59;;;;;;;;;;;;;;;24.47;50.31;99773.70;1738709;82;21075;-71
2022/07/03 07:47:26;;;;;;;;;;;;;;;24.49;48.22;99773.30;1739014;82;20389;-71
2022/07/03 07:49:52;;;;;;;;;;;;;;;24.48;48.47;99778.70;1738793;82;20093;-71
2022/07/03 07:52:19;;;;;;;;;;;;;;;24.46;49.10;99780.52;1738774;82;20081;-71
2022/07/03 07:54:45;;;;;;;;;;;;;;;24.45;49.96;99784.52;1739020;82;20081;-71
2022/07/03 07:57:11;;;;;;;;;;;;;;;24.41;47.56;99786.53;1738734;81;21105;-71
2022/07/03 07:59:38;;;;;;;;;;;;;;;24.33;47.43;99789.95;1738641;82;20117;-71
2022/07/03 08:07:36;;;;;;;;;;;;;;;24.02;52.27;99793.56;1739036;82;20093;-71
2022/07/03 08:10:03;;;;;;;;;;;;;;;23.89;56.17;99795.16;1738775;82;21122;-71
2022/07/03 08:12:29;;;;;;;;;;;;;;;23.75;53.08;99796.55;1738992;82;20425;-71
2022/07/03 08:14:57;;;;;;;;;;;;;;;23.64;54.00;99795.16;1738736;82;20443;-71
2022/07/03 08:17:24;;;;;;;;;;;;;;;23.58;60.36;99800.95;1738678;82;20089;-71
2022/07/03 08:19:50;;;;;;;;;;;;;;;23.49;59.25;99796.30;1739042;82;20093;-71
2022/07/03 08:22:17;;;;;;;;;;;;;;;23.42;62.36;99800.47;1738700;82;21142;-72
2022/07/03 08:24:43;;;;;;;;;;;;;;;23.36;68.45;99796.66;1738696;82;20140;-71
2022/07/03 08:27:11;;;;;;;;;;;;;;;23.30;68.76;99793.23;1738750;82;20166;-71
2022/07/03 08:29:37;;;;;;;;;;;;;;;23.25;68.21;99796.42;1738756;82;20117;-71
2022/07/03 08:32:07;;;;;;;;;;;;;;;23.21;67.23;99792.80;1738792;82;20112;-71
2022/07/03 08:34:33;;;;;;;;;;;;;;;23.16;65.61;99790.38;1739063;82;21164;-70
2022/07/03 08:36:59;;;;;;;;;;;;;;;23.12;64.68;99789.56;1738794;82;20456;-70
2022/07/03 08:39:26;;;;;;;;;;;;;;;23.08;63.14;99790.18;1738693;82;20141;-70
2022/07/03 08:41:52;;;;;;;;;;;;;;;23.05;62.84;99786.97;1738854;82;21015;-70
2022/07/03 08:44:19;;;;;;;;;;;;;;;23.09;63.56;99794.59;1738567;82;20135;-71
2022/07/03 08:46:46;;;;;;;;;;;;;;;23.12;63.20;99786.77;1720880;82;21116;-71
2022/07/03 08:49:12;;;;;;;;;;;;;;;23.14;62.60;99785.17;1738881;82;20093;-73
2022/07/03 08:51:41;;;;;;;;;;;;;;;23.18;63.58;99790.19;1738368;82;20081;-71
2022/07/03 08:54:09;;;;;;;;;;;;;;;23.18;63.23;99791.59;1738388;82;20146;-71
2022/07/03 08:56:36;;;;;;;;;;;;;;;23.18;62.54;99792.19;1738784;82;20094;-70
2022/07/03 08:59:03;;;;;;;;;;;;;;;23.16;63.31;99798.19;1738699;82;21126;-71
2022/07/03 09:01:31;;;;;;;;;;;;;;;23.15;65.17;99801.38;1738610;82;20113;-71
2022/07/03 09:03:57;;;;;;;;;;;;;;;23.14;67.71;99797.78;1738703;81;20149;-70
2022/07/03 09:06:23;;;;;;;;;;;;;;;23.14;69.80;99796.97;1738695;82;20152;-70
2022/07/03 09:08:50;;;;;;;;;;;;;;;23.11;69.72;99801.36;1738845;82;20081;-70
2022/07/03 09:11:16;;;;;;;;;;;;;;;23.08;68.77;99799.98;1738991;82;21028;-71
2022/07/03 09:13:43;;;;;;;;;;;;;;;23.04;69.52;99802.17;1734405;82;20175;-71
2022/07/03 09:16:16;;;;;;;;;;;;;;;23.00;71.59;99804.15;1709286;84;20095;-71
2022/07/03 09:18:45;;;;;;;;;;;;;;;22.96;72.20;99808.13;1716472;82;20121;-71
2022/07/03 09:21:12;;;;;;;;;;;;;;;22.90;70.35;99804.09;1732168;82;20162;-71
2022/07/03 09:23:43;;;;;;;;;;;;;;;22.90;70.49;99802.09;1736682;82;21139;-71
2022/07/03 09:26:13;;;;;;;;;;;;;;;22.87;70.41;99803.48;1729674;82;20088;-71
2022/07/03 09:28:53;;;;;;;;;;;;;;;22.79;69.93;99798.44;1712367;82;20084;-71
2022/07/03 09:31:24;;;;;;;;;;;;;;;22.68;73.68;99799.75;1738340;82;20097;-72
2022/07/03 09:33:57;;;;;;;;;;;;;;;22.55;75.06;99803.27;1728389;82;20083;-71
2022/07/03 09:36:45;;;;;;;;;;;;;;;22.46;69.99;99795.84;1708161;84;21324;-70
2022/07/03 09:39:30;;;;;;;;;;;;;;;22.44;69.50;99792.63;1713770;82;20081;-75
2022/07/03 09:42:01;;;;;;;;;;;;;;;22.39;68.55;99796.00;1739022;82;20172;-71
2022/07/03 09:44:41;;;;;;;;;;;;;;;22.34;69.46;99792.16;1711256;82;20134;-70
2022/07/03 09:47:18;;;;;;;;;;;;;;;22.27;70.57;99789.91;1709838;84;20437;-69
2022/07/03 09:49:58;;;;;;;;;;;;;;;22.20;72.67;99792.05;1709535;84;21134;-72
2022/07/03 09:52:38;;;;;;;;;;;;;;;22.12;74.25;99793.19;1709773;83;20450;-72
2022/07/03 09:55:12;;;;;;;;;;;;;;;22.08;73.72;99794.56;1709515;84;20095;-71
2022/07/03 09:57:48;;;;;;;;;;;;;;;22.07;72.82;99790.75;1709606;84;20120;-74
2022/07/03 10:00:20;;;;;;;;;;;;;;;22.12;74.57;99793.19;1705197;84;20122;-74
2022/07/03 10:02:55;;;;;;;;;;;;;;;22.20;75.44;99796.25;1709472;84;21182;-71
2022/07/03 10:05:23;;;;;;;;;;;;;;;22.24;77.15;99799.88;1707323;83;20083;-74
2022/07/03 10:08:02;;;;;;;;;;;;;;;22.24;76.98;99793.48;1709547;82;20087;-71
2022/07/03 10:10:35;;;;;;;;;;;;;;;22.21;74.45;99794.26;1709656;84;20485;-71
2022/07/03 10:13:02;;;;;;;;;;;;;;;22.22;73.63;99789.67;1709717;83;20454;-72
2022/07/03 10:15:30;;;;;;;;;;;;;;;22.23;70.30;99791.28;1721224;82;22103;-67
2022/07/03 10:17:58;;;;;;;;;;;;;;;22.25;66.64;99787.50;1732709;82;20143;-70
2022/07/03 10:20:27;;;;;;;;;;;;;;;;;;1709402;83;20087;-71
2022/07/03 10:22:53;;;;;;;;;;;;;;;22.31;63.46;99778.95;1708948;84;20183;-70
2022/07/03 10:25:20;;;;;;;;;;;;;;;22.36;63.23;99781.39;1709612;84;20124;-71
2022/07/03 10:27:47;;;;;;;;;;;;;;;22.43;62.03;99783.44;1709324;83;21942;-71
2022/07/03 10:30:18;;;;;;;;;;;;;;;22.52;61.33;99778.30;1710823;82;20273;-69
2022/07/03 10:32:46;;;;;;;;;;;;;;;22.66;64.28;99780.34;1730238;81;20069;-69
2022/07/03 10:35:18;;;;;;;;;;;;;;;22.81;63.28;99780.66;1723556;81;20166;-70
2022/07/03 10:38:03;;;;;;;;;;;;;;;22.98;61.13;99775.74;1735771;81;20443;-70
2022/07/03 10:46:25;;;;;;;;;;;;;;;23.61;60.56;99771.53;1719660;82;20146;-71
2022/07/03 10:48:57;;;;;;;;;;;;;;;23.86;60.55;99760.91;1729857;81;20149;-72
2022/07/03 10:51:23;;;;;;;;;;;;;;;24.07;61.17;99758.11;1747625;81;20602;-72
2022/07/03 10:53:50;;;;;;;;;;;;;;;24.29;59.55;99754.69;1736942;82;21099;-72
2022/07/03 10:56:16;;;;;;;;;;;;;;;24.48;58.54;99752.85;1717638;83;20151;-72
2022/07/03 10:58:58;;;;;;;;;;;;;;;24.62;56.48;99748.61;1717612;83;20146;-71
2022/07/03 11:01:29;;;;;;;;;;;;;;;24.70;56.84;99740.97;1717815;83;20087;-71
2022/07/03 11:03:59;;;;;;;;;;;;;;;24.75;54.68;99736.94;1717765;83;20107;-71
2022/07/03 11:06:48;;;;;;;;;;;;;;;24.74;54.41;99737.54;1717702;82;21135;-73
2022/07/03 11:09:15;;;;;;;;;;;;;;;24.80;53.28;99740.13;1717618;83;20099;-68
2022/07/03 11:11:57;;;;;;;;;;;;;;;24.83;51.81;99734.30;1717766;83;20410;-68
2022/07/03 11:14:29;;;;;;;;;;;;;;;25.00;53.56;99740.45;1717820;82;20087;-72
2022/07/03 11:17:16;;;;;;;;;;;;;;;25.43;48.63;99731.15;1717775;82;20075;-68
2022/07/03 11:19:43;;;;;;;;;;;;;;;25.81;49.10;99734.13;1716353;82;21272;-68
2022/07/03 11:22:14;;;;;;;;;;;;;;;26.18;46.98;99727.73;1722824;82;20096;-68
2022/07/03 11:24:45;;;;;;;;;;;;;;;26.41;46.42;99734.97;1747616;81;20117;-68
2022/07/03 11:27:16;;;;;;;;;;;;;;;26.50;47.35;99732.46;1717816;82;20119;-68
2022/07/03 11:29:46;;;;;;;;;;;;;;;26.55;43.64;99733.41;1718040;83;20407;-67
2022/07/03 11:32:48;;;;;;;;;;;;;;;26.48;43.70;99726.45;1717691;82;21717;-68
2022/07/03 11:35:48;;;;;;;;;;;;;;;26.40;42.76;99724.13;1717870;83;20091;-68
2022/07/03 11:38:17;;;;;;;;;;;;;;;26.25;42.66;99722.84;1717303;83;20424;-73
2022/07/03 11:40:44;;;;;;;;;;;;;;;26.17;42.43;99719.11;1729479;83;20395;-74
2022/07/03 11:43:12;;;;;;;;;;;;;;;26.07;43.60;99715.18;1743051;81;20104;-73
2022/07/03 11:45:40;;;;;;;;;;;;;;;26.12;42.46;99721.77;1750310;81;21303;-73
2022/07/03 11:48:13;;;;;;;;;;;;;;;26.27;43.76;99715.39;1746692;81;20128;-72
2022/07/03 11:50:43;;;;;;;;;;;;;;;26.57;43.19;99718.92;1755778;81;20171;-73
2022/07/03 11:53:21;;;;;;;;;;;;;;;26.95;44.84;99714.80;1761289;81;20120;-70
2022/07/03 11:55:49;;;;;;;;;;;;;;;27.43;44.31;99710.91;1761713;81;20148;-70
2022/07/03 11:58:16;;;;;;;;;;;;;;;27.91;43.52;99705.51;1761362;81;21130;-70
2022/07/03 12:00:43;;;;;;;;;;;;;;;28.14;38.84;99703.29;1761310;81;20084;-71
2022/07/03 12:03:13;;;;;;;;;;;;;;;28.28;40.32;99709.32;1761228;81;20117;-69
2022/07/03 12:05:51;;;;;;;;;;;;;;;28.47;39.12;99705.08;1761440;81;20088;-69
2022/07/03 12:08:27;;;;;;;;;;;;;;;28.69;37.97;99698.39;1761622;81;20088;-72
2022/07/03 12:10:59;;;;;;;;;;;;;;;28.78;39.17;99704.26;1761431;81;20120;-68
2022/07/03 12:13:27;;;;;;;;;;;;;;;28.83;37.93;99701.56;1761266;81;20108;-72
2022/07/03 12:15:54;;;;;;;;;;;;;;;28.82;37.65;99707.03;1758730;81;20135;-70
2022/07/03 12:18:20;;;;;;;;;;;;;;;28.80;36.39;99703.20;1747521;81;20139;-69
2022/07/03 12:20:47;;;;;;;;;;;;;;;28.92;36.40;99698.92;1731212;83;20122;-70
2022/07/03 12:23:13;;;;;;;;;;;;;;;29.10;36.16;99702.77;1731086;83;21135;-72
2022/07/03 12:25:40;;;;;;;;;;;;;;;29.36;36.15;99703.19;1731071;83;20082;-71
2022/07/03 12:28:09;;;;;;;;;;;;;;;29.47;35.05;99703.73;1731062;83;20094;-71
2022/07/03 12:30:35;;;;;;;;;;;;;;;29.29;34.64;99701.14;1731032;83;20150;-70
2022/07/03 12:33:02;;;;;;;;;;;;;;;28.95;35.51;99696.64;1731102;83;20084;-71
2022/07/03 12:35:28;;;;;;;;;;;;;;;28.63;35.84;99693.07;1731144;83;21815;-71
2022/07/03 12:37:55;;;;;;;;;;;;;;;28.40;35.82;99696.75;1731016;83;20082;-71
2022/07/03 12:40:21;;;;;;;;;;;;;;;28.35;35.90;99696.45;1730918;81;20428;-69
2022/07/03 12:42:51;;;;;;;;;;;;;;;28.18;35.65;99694.94;1713288;82;20108;-69
2022/07/03 12:45:22;;;;;;;;;;;;;;;28.06;36.26;99693.36;1708223;84;20088;-68
2022/07/03 12:48:03;;;;;;;;;;;;;;;27.99;35.77;99692.08;1709017;84;21056;-69
2022/07/03 12:50:52;;;;;;;;;;;;;;;28.02;35.29;99689.80;1708948;82;20076;-69
2022/07/03 12:53:28;;;;;;;;;;;;;;;28.08;36.67;99678.20;1709439;84;20084;-70
2022/07/03 12:55:54;;;;;;;;;;;;;;;28.33;36.38;99677.73;1717024;82;20993;-71
2022/07/03 13:01:30;;;;;;;;;;;;;;;28.62;37.21;99674.53;1736928;82;21135;-72
2022/07/03 13:03:56;;;;;;;;;;;;;;;28.75;34.99;99669.81;1736802;82;20127;-68
2022/07/03 13:06:24;;;;;;;;;;;;;;;28.92;35.17;99669.25;1736922;82;20115;-69
2022/07/03 13:08:58;;;;;;;;;;;;;;;29.17;35.10;99665.87;1736906;82;20099;-70
2022/07/03 13:11:32;;;;;;;;;;;;;;;29.42;34.72;99657.63;1714206;82;20175;-69
2022/07/03 13:14:02;;;;;;;;;;;;;;;29.69;34.17;99652.30;1737006;82;21051;-69
2022/07/03 13:16:29;;;;;;;;;;;;;;;29.97;34.12;99655.01;1734043;82;20123;-69
2022/07/03 13:19:00;;;;;;;;;;;;;;;30.28;34.43;99645.47;1724295;82;20098;-69